createdAt,value
2017-11-29T00:00:45.480Z,4.00
2017-11-29T00:03:13.023Z,4.10
2017-11-29T00:05:41.313Z,6.60
2017-11-29T00:08:09.599Z,4.10
2017-11-29T00:10:37.953Z,4.87
2017-11-29T00:13:07.001Z,4.77
2017-11-29T00:15:35.560Z,4.10
2017-11-29T00:18:03.077Z,4.60
2017-11-29T00:20:31.378Z,5.00
2017-11-29T00:23:00.446Z,4.60
2017-11-29T00:25:27.998Z,4.53
2017-11-29T00:27:56.295Z,4.97
2017-11-29T00:30:24.712Z,5.10
2017-11-29T00:32:53.004Z,4.23
2017-11-29T00:35:21.301Z,3.93
2017-11-29T00:37:49.733Z,4.00
2017-11-29T00:40:18.072Z,4.20
2017-11-29T00:42:47.998Z,4.70
2017-11-29T00:45:16.328Z,4.13
2017-11-29T00:47:44.615Z,4.53
2017-11-29T00:50:12.905Z,4.87
2017-11-29T00:52:41.183Z,4.17
2017-11-29T00:55:10.066Z,4.00
2017-11-29T00:57:37.982Z,4.33
2017-11-29T01:00:06.297Z,4.07
2017-11-29T01:02:34.583Z,3.60
2017-11-29T01:05:02.888Z,4.30
2017-11-29T01:07:31.178Z,4.80
2017-11-29T01:09:59.476Z,3.93
2017-11-29T01:12:27.818Z,3.70
2017-11-29T01:14:56.118Z,3.73
2017-11-29T01:17:24.552Z,4.10
2017-11-29T01:19:52.887Z,3.60
2017-11-29T01:22:21.182Z,3.87
2017-11-29T01:24:49.482Z,3.53
2017-11-29T01:27:18.000Z,3.90
2017-11-29T01:29:46.342Z,3.90
2017-11-29T01:32:14.645Z,4.87
2017-11-29T01:34:42.944Z,3.70
2017-11-29T01:37:12.277Z,4.10
2017-11-29T01:39:39.806Z,4.60
2017-11-29T01:42:08.136Z,4.80
2017-11-29T01:44:36.420Z,4.60
2017-11-29T01:47:04.759Z,4.47
2017-11-29T01:49:33.887Z,4.87
2017-11-29T01:52:02.194Z,4.07
2017-11-29T01:54:29.715Z,4.90
2017-11-29T01:56:58.043Z,4.90
2017-11-29T01:59:26.338Z,5.37
2017-11-29T02:01:54.650Z,10.57
2017-11-29T02:04:23.183Z,4.87
2017-11-29T02:06:51.492Z,4.87
2017-11-29T02:09:21.287Z,4.60
2017-11-29T02:11:49.720Z,4.50
2017-11-29T02:14:17.650Z,4.97
2017-11-29T02:16:45.179Z,5.30
2017-11-29T02:19:13.105Z,3.93
2017-11-29T02:21:41.436Z,5.07
2017-11-29T02:24:10.447Z,5.37
2017-11-29T02:26:37.987Z,4.70
2017-11-29T02:29:05.510Z,4.80
2017-11-29T02:31:34.307Z,5.37
2017-11-29T02:34:01.851Z,5.10
2017-11-29T02:36:31.287Z,5.00
2017-11-29T02:38:58.829Z,6.23
2017-11-29T02:41:39.490Z,5.40
2017-11-29T02:44:07.777Z,7.37
2017-11-29T02:46:37.000Z,8.90
2017-11-29T02:49:04.515Z,4.80
2017-11-29T02:51:32.822Z,6.20
2017-11-29T02:54:01.120Z,7.83
2017-11-29T02:56:29.440Z,6.50
2017-11-29T02:58:57.983Z,6.37
2017-11-29T03:01:26.279Z,6.17
2017-11-29T03:03:54.573Z,6.47
2017-11-29T03:06:22.872Z,6.67
2017-11-29T03:08:51.406Z,6.50
2017-11-29T03:11:19.696Z,7.10
2017-11-29T03:13:48.000Z,7.17
2017-11-29T03:16:16.280Z,7.03
2017-11-29T03:18:44.631Z,6.27
2017-11-29T03:21:13.044Z,6.67
2017-11-29T03:23:41.347Z,5.23
2017-11-29T03:26:09.628Z,5.33
2017-11-29T03:28:38.003Z,6.07
2017-11-29T03:31:05.556Z,4.97
2017-11-29T03:33:33.516Z,5.20
2017-11-29T03:36:01.810Z,4.80
2017-11-29T03:38:30.124Z,4.87
2017-11-29T03:40:59.030Z,5.33
2017-11-29T03:43:26.969Z,5.53
2017-11-29T03:45:55.367Z,6.00
2017-11-29T03:48:23.679Z,5.43
2017-11-29T03:50:52.411Z,5.37
2017-11-29T03:53:20.339Z,4.60
2017-11-29T03:55:48.624Z,4.37
2017-11-29T03:58:16.942Z,5.00
2017-11-29T04:00:46.484Z,4.30
2017-11-29T04:03:15.300Z,4.53
2017-11-29T04:05:43.624Z,4.60
2017-11-29T04:08:11.936Z,3.70
2017-11-29T04:10:40.214Z,4.73
2017-11-29T04:13:09.254Z,3.10
2017-11-29T04:15:36.772Z,3.13
2017-11-29T04:18:05.398Z,2.90
2017-11-29T04:20:33.679Z,2.73
2017-11-29T04:23:01.974Z,3.00
2017-11-29T04:25:30.268Z,2.23
2017-11-29T04:27:59.417Z,3.17
2017-11-29T04:30:26.970Z,3.30
2017-11-29T04:32:55.279Z,3.43
2017-11-29T04:35:23.662Z,2.90
2017-11-29T04:37:51.967Z,2.43
2017-11-29T04:40:21.052Z,5.90
2017-11-29T04:42:49.379Z,4.13
2017-11-29T04:45:17.078Z,3.63
2017-11-29T04:47:47.563Z,3.80
2017-11-29T04:50:15.100Z,4.80
2017-11-29T04:52:43.755Z,4.80
2017-11-29T04:55:12.065Z,6.23
2017-11-29T04:57:40.357Z,5.67
2017-11-29T05:00:09.663Z,5.60
2017-11-29T05:02:38.912Z,5.07
2017-11-29T05:05:06.842Z,6.77
2017-11-29T05:07:35.120Z,8.20
2017-11-29T05:10:03.433Z,6.57
2017-11-29T05:12:31.915Z,8.87
2017-11-29T05:15:00.225Z,6.47
2017-11-29T05:17:29.274Z,7.73
2017-11-29T05:19:56.821Z,7.83
2017-11-29T05:22:25.111Z,6.60
2017-11-29T05:24:53.427Z,5.73
2017-11-29T05:27:21.783Z,5.40
2017-11-29T05:29:50.267Z,6.30
2017-11-29T05:32:18.555Z,5.43
2017-11-29T05:34:46.894Z,6.97
2017-11-29T05:37:15.182Z,7.33
2017-11-29T05:39:42.732Z,12.90
2017-11-29T05:42:10.652Z,9.73
2017-11-29T05:44:38.965Z,9.50
2017-11-29T05:47:07.297Z,6.90
2017-11-29T05:49:36.470Z,8.27
2017-11-29T05:52:04.014Z,7.23
2017-11-29T05:54:33.070Z,10.70
2017-11-29T05:57:00.658Z,10.27
2017-11-29T05:59:30.019Z,10.70
2017-11-29T06:01:58.349Z,9.07
2017-11-29T06:04:26.261Z,8.73
2017-11-29T06:06:54.938Z,9.03
2017-11-29T06:09:22.473Z,9.93
2017-11-29T06:11:50.788Z,11.40
2017-11-29T06:14:19.067Z,10.67
2017-11-29T06:16:47.383Z,12.07
2017-11-29T06:19:14.911Z,12.90
2017-11-29T06:21:42.869Z,12.30
2017-11-29T06:24:11.178Z,14.90
2017-11-29T06:26:39.519Z,10.97
2017-11-29T06:29:08.044Z,9.90
2017-11-29T06:31:37.722Z,13.83
2017-11-29T06:34:05.998Z,9.00
2017-11-29T06:36:34.308Z,13.60
2017-11-29T06:39:02.605Z,12.10
2017-11-29T06:41:30.928Z,15.00
2017-11-29T06:43:59.394Z,11.77
2017-11-29T06:46:27.715Z,14.50
2017-11-29T06:48:56.814Z,11.17
2017-11-29T06:51:24.424Z,10.87
2017-11-29T06:53:52.935Z,14.13
2017-11-29T06:56:21.270Z,11.20
2017-11-29T06:58:49.563Z,10.00
2017-11-29T07:01:17.877Z,9.83
2017-11-29T07:03:46.147Z,9.50
2017-11-29T07:06:15.311Z,8.33
2017-11-29T07:08:42.893Z,12.60
2017-11-29T07:11:11.206Z,10.83
2017-11-29T07:13:40.235Z,11.03
2017-11-29T07:16:07.825Z,11.97
2017-11-29T07:18:35.344Z,11.47
2017-11-29T07:21:03.288Z,8.73
2017-11-29T07:23:31.601Z,9.00
2017-11-29T07:25:59.906Z,11.73
2017-11-29T07:28:28.230Z,10.07
2017-11-29T07:30:56.157Z,8.20
2017-11-29T07:33:25.936Z,7.80
2017-11-29T07:35:54.215Z,8.87
2017-11-29T07:38:22.527Z,11.00
2017-11-29T07:40:50.057Z,9.53
2017-11-29T07:43:18.495Z,8.63
2017-11-29T07:45:46.792Z,10.50
2017-11-29T07:48:16.029Z,9.27
2017-11-29T07:50:43.554Z,10.83
2017-11-29T07:53:11.864Z,8.10
2017-11-29T07:55:40.238Z,10.70
2017-11-29T07:58:08.543Z,11.57
2017-11-29T08:00:36.847Z,11.17
2017-11-29T08:03:05.210Z,8.50
2017-11-29T08:05:33.496Z,10.03
2017-11-29T08:08:01.808Z,9.10
2017-11-29T08:10:30.222Z,9.70
2017-11-29T08:12:59.120Z,14.60
2017-11-29T08:15:27.439Z,9.43
2017-11-29T08:17:56.313Z,11.50
2017-11-29T08:20:23.835Z,9.73
2017-11-29T08:22:54.146Z,10.60
2017-11-29T08:25:21.658Z,9.57
2017-11-29T08:27:50.012Z,9.10
2017-11-29T08:30:18.283Z,11.03
2017-11-29T08:32:57.437Z,12.40
2017-11-29T08:35:24.993Z,10.30
2017-11-29T08:37:53.311Z,17.70
2017-11-29T08:40:21.603Z,23.10
2017-11-29T08:42:49.922Z,20.43
2017-11-29T08:45:18.219Z,11.60
2017-11-29T08:47:46.526Z,10.20
2017-11-29T08:50:14.811Z,10.93
2017-11-29T08:52:43.103Z,17.23
2017-11-29T08:55:11.411Z,14.40
2017-11-29T08:57:38.935Z,12.00
2017-11-29T09:00:06.880Z,12.37
2017-11-29T09:02:35.176Z,10.83
2017-11-29T09:05:03.498Z,13.50
2017-11-29T09:07:32.717Z,13.40
2017-11-29T09:10:00.267Z,16.37
2017-11-29T09:12:28.561Z,13.60
2017-11-29T09:14:57.595Z,12.90
2017-11-29T09:17:25.116Z,13.77
2017-11-29T09:19:53.522Z,12.77
2017-11-29T09:22:21.818Z,10.50
2017-11-29T09:24:50.681Z,11.53
2017-11-29T09:27:18.589Z,10.47
2017-11-29T09:29:47.044Z,9.40
2017-11-29T09:32:15.322Z,9.80
2017-11-29T09:34:43.637Z,10.97
2017-11-29T09:37:12.629Z,10.47
2017-11-29T09:39:40.211Z,8.70
2017-11-29T09:42:08.508Z,10.47
2017-11-29T09:44:36.047Z,8.63
2017-11-29T09:47:03.960Z,7.03
2017-11-29T09:49:32.273Z,6.27
2017-11-29T09:52:00.662Z,7.30
2017-11-29T09:54:28.971Z,8.00
2017-11-29T09:56:57.265Z,11.40
2017-11-29T09:59:25.595Z,8.13
2017-11-29T10:01:53.109Z,6.90
2017-11-29T10:04:21.042Z,9.93
2017-11-29T10:06:49.329Z,9.80
2017-11-29T10:09:17.740Z,6.10
2017-11-29T10:11:46.058Z,6.90
2017-11-29T10:14:14.357Z,8.23
2017-11-29T10:16:42.843Z,6.80
2017-11-29T10:19:11.129Z,5.23
2017-11-29T10:21:39.976Z,5.93
2017-11-29T10:24:07.894Z,5.30
2017-11-29T10:26:36.199Z,5.87
2017-11-29T10:29:04.481Z,7.07
2017-11-29T10:31:32.835Z,6.20
2017-11-29T10:34:01.936Z,6.33
2017-11-29T10:36:30.892Z,5.30
2017-11-29T10:38:59.189Z,6.30
2017-11-29T10:41:27.502Z,6.10
2017-11-29T10:43:55.807Z,6.10
2017-11-29T10:46:24.238Z,5.67
2017-11-29T10:48:52.544Z,4.33
2017-11-29T10:51:20.849Z,6.10
2017-11-29T10:53:49.510Z,3.37
2017-11-29T10:56:17.809Z,10.97
2017-11-29T10:58:46.117Z,3.33
2017-11-29T11:01:14.419Z,3.30
2017-11-29T11:03:41.928Z,6.00
2017-11-29T11:06:10.431Z,11.40
2017-11-29T11:08:38.386Z,7.90
2017-11-29T11:11:05.933Z,4.10
2017-11-29T11:13:33.453Z,8.57
2017-11-29T11:16:01.484Z,2.77
2017-11-29T11:18:29.034Z,4.83
2017-11-29T11:20:56.587Z,2.93
2017-11-29T11:23:25.528Z,3.83
2017-11-29T11:25:55.038Z,3.80
2017-11-29T11:28:24.262Z,4.13
2017-11-29T11:30:54.326Z,2.83
2017-11-29T11:33:23.482Z,3.80
2017-11-29T11:35:52.687Z,3.10
2017-11-29T11:38:21.851Z,2.90
2017-11-29T11:40:51.106Z,2.57
2017-11-29T11:43:20.302Z,3.07
2017-11-29T11:45:51.347Z,4.70
2017-11-29T11:48:20.517Z,2.87
2017-11-29T11:50:49.713Z,3.57
2017-11-29T11:53:18.904Z,4.30
2017-11-29T11:55:48.109Z,3.30
2017-11-29T11:58:17.297Z,4.00
2017-11-29T12:00:47.405Z,3.20
2017-11-29T12:03:16.611Z,3.80
2017-11-29T12:05:45.779Z,3.67
2017-11-29T12:08:14.982Z,5.63
2017-11-29T12:10:44.157Z,3.37
2017-11-29T12:13:13.338Z,4.43
2017-11-29T12:15:42.507Z,2.97
2017-11-29T12:18:11.703Z,3.60
2017-11-29T12:20:41.772Z,3.20
2017-11-29T12:23:11.368Z,3.67
2017-11-29T12:25:40.545Z,3.77
2017-11-29T12:28:09.795Z,3.60
2017-11-29T12:30:38.959Z,5.13
2017-11-29T12:33:08.146Z,3.30
2017-11-29T12:35:37.326Z,5.10
2017-11-29T12:38:06.535Z,2.70
2017-11-29T12:40:35.710Z,3.47
2017-11-29T12:43:04.920Z,3.10
2017-11-29T12:45:34.134Z,3.50
2017-11-29T12:48:09.125Z,3.60
2017-11-29T12:50:45.387Z,3.33
2017-11-29T12:53:14.565Z,3.30
2017-11-29T12:55:43.723Z,2.90
2017-11-29T12:58:12.958Z,2.83
2017-11-29T13:00:43.033Z,3.87
2017-11-29T13:03:12.225Z,4.33
2017-11-29T13:05:41.411Z,5.80
2017-11-29T13:08:10.595Z,3.83
2017-11-29T13:10:39.783Z,3.67
2017-11-29T13:13:08.975Z,3.30
2017-11-29T13:15:38.168Z,4.07
2017-11-29T13:18:07.347Z,4.80
2017-11-29T13:20:36.513Z,3.30
2017-11-29T13:23:06.623Z,4.40
2017-11-29T13:25:35.790Z,4.33
2017-11-29T13:28:06.733Z,3.70
2017-11-29T13:30:35.898Z,3.80
2017-11-29T13:33:05.090Z,3.60
2017-11-29T13:35:34.269Z,3.47
2017-11-29T13:38:03.454Z,3.83
2017-11-29T13:40:32.631Z,3.40
2017-11-29T13:43:01.831Z,4.13
2017-11-29T13:45:31.006Z,4.63
2017-11-29T13:48:00.179Z,4.00
2017-11-29T13:50:29.374Z,3.90
2017-11-29T13:52:58.567Z,4.10
2017-11-29T13:55:27.767Z,3.93
2017-11-29T13:57:57.443Z,4.10
2017-11-29T14:00:26.667Z,3.80
2017-11-29T14:02:55.837Z,4.77
2017-11-29T14:05:25.040Z,3.90
2017-11-29T14:07:54.215Z,4.73
2017-11-29T14:10:23.411Z,7.73
2017-11-29T14:12:52.656Z,4.20
2017-11-29T14:15:21.851Z,5.13
2017-11-29T14:17:51.011Z,6.97
2017-11-29T14:20:20.208Z,9.63
2017-11-29T14:22:49.395Z,5.57
2017-11-29T14:25:18.647Z,7.27
2017-11-29T14:27:48.531Z,5.43
2017-11-29T14:30:17.718Z,5.37
2017-11-29T14:32:46.882Z,5.23
2017-11-29T14:35:16.078Z,4.47
2017-11-29T14:37:45.248Z,5.30
2017-11-29T14:40:14.434Z,5.40
2017-11-29T14:42:43.650Z,8.60
2017-11-29T14:45:12.840Z,5.70
2017-11-29T14:47:42.016Z,5.57
2017-11-29T14:50:11.217Z,6.77
2017-11-29T14:52:40.386Z,8.43
2017-11-29T14:55:09.595Z,6.10
2017-11-29T14:57:38.827Z,7.80
2017-11-29T15:00:08.003Z,7.53
2017-11-29T15:02:37.171Z,6.60
2017-11-29T15:05:06.358Z,6.43
2017-11-29T15:07:35.523Z,6.20
2017-11-29T15:10:04.734Z,7.60
2017-11-29T15:12:33.954Z,8.73
2017-11-29T15:15:03.154Z,8.57
2017-11-29T15:17:32.334Z,7.10
2017-11-29T15:20:01.525Z,6.93
2017-11-29T15:22:31.410Z,7.10
2017-11-29T15:25:00.646Z,8.50
2017-11-29T15:27:29.807Z,9.27
2017-11-29T15:29:58.997Z,9.60
2017-11-29T15:32:28.547Z,9.93
2017-11-29T15:34:57.736Z,10.17
2017-11-29T15:37:26.915Z,7.07
2017-11-29T15:39:56.965Z,7.47
2017-11-29T15:42:26.166Z,7.37
2017-11-29T15:44:55.351Z,8.13
2017-11-29T15:47:24.687Z,9.10
2017-11-29T15:49:54.163Z,7.53
2017-11-29T15:52:23.364Z,8.33
2017-11-29T15:54:52.542Z,9.13
2017-11-29T15:57:21.748Z,7.93
2017-11-29T15:59:51.706Z,8.43
2017-11-29T16:02:21.097Z,12.20
2017-11-29T16:04:50.280Z,14.67
2017-11-29T16:07:19.501Z,7.73
2017-11-29T16:09:48.662Z,9.53
2017-11-29T16:12:17.856Z,8.80
2017-11-29T16:14:47.860Z,11.23
2017-11-29T16:17:17.050Z,8.80
2017-11-29T16:19:46.308Z,7.23
2017-11-29T16:22:15.533Z,6.97
2017-11-29T16:24:44.713Z,8.10
2017-11-29T16:27:13.900Z,7.27
2017-11-29T16:29:43.097Z,8.37
2017-11-29T16:32:12.300Z,9.03
2017-11-29T16:34:41.492Z,10.93
2017-11-29T16:37:10.733Z,7.63
2017-11-29T16:39:40.129Z,9.33
2017-11-29T16:42:08.433Z,9.73
2017-11-29T16:44:35.959Z,8.57
2017-11-29T16:47:04.197Z,9.83
2017-11-29T16:49:32.173Z,10.57
2017-11-29T16:52:00.490Z,10.43
2017-11-29T16:54:28.793Z,11.30
2017-11-29T16:56:56.343Z,9.30
2017-11-29T16:59:24.254Z,10.53
2017-11-29T17:01:53.492Z,18.97
2017-11-29T17:04:21.778Z,13.97
2017-11-29T17:06:49.352Z,14.00
2017-11-29T17:09:18.123Z,13.00
2017-11-29T17:11:46.060Z,18.30
2017-11-29T17:14:14.392Z,18.90
2017-11-29T17:16:43.618Z,19.00
2017-11-29T17:19:11.159Z,19.47
2017-11-29T17:21:39.519Z,17.23
2017-11-29T17:24:07.865Z,20.20
2017-11-29T17:26:36.153Z,11.57
2017-11-29T17:29:05.452Z,12.73
2017-11-29T17:31:33.228Z,17.80
2017-11-29T17:34:01.177Z,15.70
2017-11-29T17:36:29.482Z,14.43
2017-11-29T17:38:57.795Z,16.00
2017-11-29T17:41:26.151Z,15.10
2017-11-29T17:43:55.316Z,16.20
2017-11-29T17:46:22.849Z,16.80
2017-11-29T17:48:51.170Z,13.90
2017-11-29T17:51:19.477Z,16.40
2017-11-29T17:53:48.629Z,12.07
2017-11-29T17:56:16.898Z,13.93
2017-11-29T17:58:44.447Z,13.57
2017-11-29T18:01:12.879Z,17.83
2017-11-29T18:03:42.261Z,16.30
2017-11-29T18:06:10.578Z,13.23
2017-11-29T18:08:38.124Z,13.60
2017-11-29T18:11:07.931Z,16.67
2017-11-29T18:13:35.893Z,19.33
2017-11-29T18:16:04.516Z,24.30
2017-11-29T18:18:33.436Z,31.63
2017-11-29T18:21:01.000Z,27.70
2017-11-29T18:23:29.310Z,28.20
2017-11-29T18:25:57.816Z,24.80
2017-11-29T18:28:26.124Z,19.90
2017-11-29T18:30:54.059Z,19.90
2017-11-29T18:33:22.368Z,15.80
2017-11-29T18:35:49.898Z,24.27
2017-11-29T18:38:17.844Z,29.43
2017-11-29T18:40:46.137Z,24.83
2017-11-29T18:43:15.294Z,16.50
2017-11-29T18:45:42.858Z,16.57
2017-11-29T18:48:11.936Z,15.87
2017-11-29T18:50:39.497Z,17.20
2017-11-29T18:53:11.114Z,14.77
2017-11-29T18:55:39.085Z,17.27
2017-11-29T18:58:07.424Z,16.13
2017-11-29T19:00:36.485Z,16.97
2017-11-29T19:03:04.409Z,15.03
2017-11-29T19:05:32.394Z,16.30
2017-11-29T19:08:00.930Z,17.93
2017-11-29T19:10:29.247Z,15.10
2017-11-29T19:12:58.676Z,16.97
2017-11-29T19:15:27.608Z,15.10
2017-11-29T19:17:57.132Z,15.20
2017-11-29T19:20:25.500Z,19.83
2017-11-29T19:22:53.427Z,17.17
2017-11-29T19:25:21.807Z,20.10
2017-11-29T19:27:50.108Z,17.20
2017-11-29T19:30:19.923Z,19.40
2017-11-29T19:32:48.292Z,16.90
2017-11-29T19:35:16.676Z,19.10
2017-11-29T19:37:44.998Z,18.20
2017-11-29T19:40:13.369Z,17.47
2017-11-29T19:42:43.156Z,23.13
2017-11-29T19:45:16.685Z,23.23
2017-11-29T19:47:44.637Z,19.70
2017-11-29T19:50:12.332Z,19.67
2017-11-29T19:52:41.278Z,18.67
2017-11-29T19:55:09.362Z,18.60
2017-11-29T19:57:37.288Z,20.33
2017-11-29T20:00:09.042Z,20.93
2017-11-29T20:02:37.423Z,18.90
2017-11-29T20:05:04.981Z,21.07
2017-11-29T20:07:33.268Z,22.90
2017-11-29T20:12:46.367Z,16.30
2017-11-29T20:15:14.679Z,18.53
2017-11-29T20:17:42.219Z,19.37
2017-11-29T20:20:10.576Z,19.80
2017-11-29T20:22:39.061Z,18.67
2017-11-29T20:25:08.161Z,17.27
2017-11-29T20:27:36.457Z,18.20
2017-11-29T20:30:04.807Z,18.23
2017-11-29T20:32:32.347Z,21.27
2017-11-29T20:35:01.923Z,21.20
2017-11-29T20:37:31.101Z,22.20
2017-11-29T20:39:59.407Z,24.50
2017-11-29T20:42:26.983Z,24.80
2017-11-29T20:44:55.282Z,24.27
2017-11-29T20:47:23.865Z,24.43
2017-11-29T20:49:51.828Z,27.73
2017-11-29T20:52:35.192Z,25.50
2017-11-29T20:55:03.505Z,25.57
2017-11-29T20:57:31.095Z,19.47
2017-11-29T20:59:59.973Z,24.43
2017-11-29T21:02:27.964Z,24.83
2017-11-29T21:04:55.892Z,21.10
2017-11-29T21:07:24.192Z,19.33
2017-11-29T21:09:52.503Z,20.73
2017-11-29T21:12:20.820Z,18.77
2017-11-29T21:14:49.132Z,20.30
2017-11-29T21:17:17.465Z,18.13
2017-11-29T21:19:46.187Z,18.47
2017-11-29T21:22:14.128Z,18.17
2017-11-29T21:24:42.417Z,16.80
2017-11-29T21:27:10.768Z,18.17
2017-11-29T21:29:39.229Z,28.10
2017-11-29T21:32:08.325Z,24.50
2017-11-29T21:34:36.977Z,19.30
2017-11-29T21:37:04.828Z,17.83
2017-11-29T21:39:32.752Z,16.20
2017-11-29T21:42:01.064Z,18.80
2017-11-29T21:44:29.355Z,15.53
2017-11-29T21:46:57.706Z,17.97
2017-11-29T21:49:25.987Z,20.73
2017-11-29T21:51:54.301Z,19.00
2017-11-29T21:54:22.624Z,19.30
2017-11-29T21:56:51.679Z,16.10
2017-11-29T21:59:20.080Z,17.93
2017-11-29T22:01:47.634Z,16.67
2017-11-29T22:04:16.037Z,15.93
2017-11-29T22:06:44.353Z,17.30
2017-11-29T22:09:13.502Z,15.73
2017-11-29T22:11:41.043Z,16.77
2017-11-29T22:14:09.391Z,21.23
2017-11-29T22:16:37.696Z,17.37
2017-11-29T22:19:06.004Z,14.43
2017-11-29T22:21:34.343Z,16.13
2017-11-29T22:24:02.661Z,21.00
2017-11-29T22:26:31.726Z,21.30
2017-11-29T22:29:03.763Z,18.77
2017-11-29T22:31:31.716Z,20.10
2017-11-29T22:34:00.147Z,17.50
2017-11-29T22:36:28.816Z,20.30
2017-11-29T22:38:56.819Z,20.60
2017-11-29T22:41:25.537Z,21.67
2017-11-29T22:43:53.477Z,36.43
2017-11-29T22:46:21.816Z,21.83
2017-11-29T22:48:50.169Z,21.30
2017-11-29T22:51:18.684Z,24.47
2017-11-29T22:53:46.990Z,19.83
2017-11-29T22:56:15.274Z,14.97
2017-11-29T22:58:43.584Z,15.03
2017-11-29T23:01:11.937Z,17.67
2017-11-29T23:03:42.736Z,18.00
2017-11-29T23:06:10.263Z,15.20
2017-11-29T23:08:38.595Z,16.30
2017-11-29T23:11:06.541Z,16.27
2017-11-29T23:13:34.116Z,16.53
2017-11-29T23:16:02.771Z,15.60
2017-11-29T23:18:30.327Z,17.30
2017-11-29T23:20:58.619Z,16.63
2017-11-29T23:23:27.537Z,17.23
2017-11-29T23:25:55.476Z,16.80
2017-11-29T23:28:23.783Z,18.20
2017-11-29T23:30:52.098Z,21.80
2017-11-29T23:33:20.438Z,18.10
2017-11-29T23:35:48.738Z,21.00
2017-11-29T23:38:17.051Z,21.47
2017-11-29T23:40:45.377Z,25.57
2017-11-29T23:43:13.724Z,24.50
2017-11-29T23:45:42.027Z,28.40
2017-11-29T23:48:10.636Z,28.73
2017-11-29T23:50:38.971Z,28.83
2017-11-29T23:53:07.383Z,28.23
2017-11-29T23:55:35.332Z,25.37
2017-11-29T23:58:04.472Z,22.07
